Time;durP1;ratioP1;P1;durP2;ratioP2;P2;SDS_P1;SDS_P2;PMS_P1;PMS_P2;Temp;Humidity;BMP_temperature;BMP_pressure;BME280_temperature;BME280_humidity;BME280_pressure;Samples;Min_cycle;Max_cycle;Signal;HPM_P1;HPM_P2
2023/09/01 00:01:16;;;;;;;;;2.00;2.00;;;;;-143.90;91.80;74858.00;4910857;28;102359;-75
2023/09/01 00:03:43;;;;;;;;;1.00;1.00;;;;;-143.90;92.16;74858.00;4907951;28;103691;-75
2023/09/01 00:06:11;;;;;;;;;1.75;1.75;;;;;-143.90;92.16;74843.53;4915647;28;101911;-75
2023/09/01 00:08:39;;;;;;;;;2.50;2.50;;;;;-143.90;92.75;74849.72;4913445;28;102500;-75
2023/09/01 00:11:05;;;;;;;;;1.50;1.50;;;;;-143.90;92.28;74841.44;4915842;28;102300;-76
2023/09/01 00:13:32;;;;;;;;;1.50;1.00;;;;;-143.90;92.51;74837.31;4916206;28;103452;-76
2023/09/01 00:15:58;;;;;;;;;1.00;0.00;;;;;-143.90;92.36;74837.31;4914290;28;102449;-76
2023/09/01 00:18:25;;;;;;;;;1.00;1.00;;;;;-143.90;92.69;74824.91;4914671;28;102056;-75
2023/09/01 00:20:57;;;;;;;;;0.50;0.50;;;;;-143.90;92.44;74824.91;4915866;28;101997;-75
2023/09/01 00:23:24;;;;;;;;;0.50;0.50;;;;;-143.90;92.49;74820.78;4914650;28;104396;-76
2023/09/01 00:25:52;;;;;;;;;2.00;1.00;;;;;-143.90;92.15;74820.78;4909298;28;102041;-76
2023/09/01 00:28:19;;;;;;;;;0.67;0.67;;;;;-143.90;91.72;74820.78;4911207;28;102533;-75
2023/09/01 00:30:57;;;;;;;;;1.50;1.50;;;;;-143.90;91.62;74812.50;4914102;28;102114;-75
2023/09/01 00:33:29;;;;;;;;;1.00;1.00;;;;;-143.90;91.36;74816.66;4893785;28;102889;-74
2023/09/01 00:35:57;;;;;;;;;2.75;2.00;;;;;-143.90;91.53;74816.66;4905271;28;102494;-76
2023/09/01 00:38:26;;;;;;;;;1.25;1.25;;;;;-143.90;91.27;74814.56;4886820;28;102546;-76
2023/09/01 00:40:53;;;;;;;;;2.00;2.00;;;;;-143.90;91.16;74812.50;4905284;28;104934;-75
2023/09/01 00:43:20;;;;;;;;;1.75;1.00;;;;;-143.90;91.35;74808.38;4907022;28;104002;-74
2023/09/01 00:45:47;;;;;;;;;2.50;2.50;;;;;-143.90;91.09;74800.09;4907359;28;102032;-75
2023/09/01 00:48:14;;;;;;;;;2.75;2.00;;;;;-143.90;91.23;74810.44;4902115;28;102071;-75
2023/09/01 00:50:42;;;;;;;;;1.00;1.00;;;;;-143.90;91.24;74806.31;4911261;28;102068;-75
2023/09/01 00:53:09;;;;;;;;;4.00;3.00;;;;;-143.90;90.53;74810.44;4911339;28;108648;-74
2023/09/01 00:55:37;;;;;;;;;1.75;1.00;;;;;-143.90;90.64;74812.50;4908070;28;102323;-74
2023/09/01 00:58:04;;;;;;;;;2.50;2.00;;;;;-143.90;90.41;74812.50;4906883;28;102314;-75
2023/09/01 01:00:32;;;;;;;;;3.50;1.50;;;;;-143.90;89.57;74816.66;4910196;28;102261;-76
2023/09/01 01:03:04;;;;;;;;;4.00;3.00;;;;;-143.90;89.58;74824.91;4881659;28;103709;-75
2023/09/01 01:05:55;;;;;;;;;1.50;1.00;;;;;-143.90;89.82;74829.03;4903794;28;101986;-75
2023/09/01 01:08:22;;;;;;;;;1.00;1.00;;;;;-143.90;89.48;74829.03;4909274;28;102016;-76
2023/09/01 01:11:25;;;;;;;;;1.50;1.25;;;;;-143.90;89.71;74831.13;4910457;28;102489;-75
2023/09/01 01:13:58;;;;;;;;;2.00;2.00;;;;;-143.90;89.12;74841.44;4910777;28;109457;-75
2023/09/01 01:16:26;;;;;;;;;2.25;2.00;;;;;-143.90;88.95;74849.72;4908756;28;103651;-75
2023/09/01 01:18:54;;;;;;;;;1.00;1.00;;;;;-143.90;88.89;74853.84;4896388;28;102293;-76
2023/09/01 01:21:26;;;;;;;;;1.00;1.00;;;;;-143.90;88.82;74855.91;4908106;28;102408;-75
2023/09/01 01:23:53;;;;;;;;;1.00;1.00;;;;;-143.90;88.59;74862.13;4912993;28;104291;-75
2023/09/01 01:26:21;;;;;;;;;3.00;3.00;;;;;-143.90;87.54;74872.47;4910823;28;102302;-75
2023/09/01 01:28:48;;;;;;;;;2.00;2.00;;;;;-143.90;88.31;74880.72;4911697;28;102198;-75
2023/09/01 01:31:14;;;;;;;;;2.00;2.00;;;;;-143.90;87.82;74893.13;4911589;28;102724;-75
2023/09/01 01:33:54;;;;;;;;;2.50;2.50;;;;;-143.90;87.70;74884.88;4926246;28;105685;-75
2023/09/01 01:36:26;;;;;;;;;3.00;2.75;;;;;-143.90;87.31;74891.06;4907872;28;102323;-75
2023/09/01 01:39:06;;;;;;;;;3.00;3.00;;;;;-143.90;87.37;74897.25;4911509;28;103590;-76
2023/09/01 01:41:47;;;;;;;;;2.25;2.25;;;;;-143.90;87.32;74895.19;4910643;28;102087;-76
2023/09/01 01:44:18;;;;;;;;;2.00;2.00;;;;;-143.90;87.30;74903.47;4909031;28;108351;-76
2023/09/01 01:46:45;;;;;;;;;3.75;2.00;;;;;-143.90;87.31;74911.72;4907874;28;102090;-75
2023/09/01 01:49:14;;;;;;;;;2.00;1.00;;;;;-143.90;86.24;74909.66;4918731;28;103643;-76
2023/09/01 01:51:41;;;;;;;;;6.00;3.75;;;;;-143.90;86.60;74917.94;4921399;28;102116;-76
2023/09/01 01:54:07;;;;;;;;;2.00;2.00;;;;;-143.90;86.50;74926.22;4913059;28;103552;-75
2023/09/01 01:56:34;;;;;;;;;3.25;3.00;;;;;-143.90;86.23;74924.13;4918062;28;103177;-74
2023/09/01 01:59:04;;;;;;;;;0.00;0.00;;;;;-143.90;86.72;74932.41;4919739;28;102938;-74
2023/09/01 02:01:31;;;;;;;;;2.00;2.00;;;;;-143.90;86.04;74928.28;4916084;28;101956;-75
2023/09/01 02:03:58;;;;;;;;;4.25;3.75;;;;;-143.90;86.22;74948.94;4899532;28;103762;-74
2023/09/01 02:06:25;;;;;;;;;3.75;2.50;;;;;-143.90;86.94;74948.94;4912485;28;102884;-75
2023/09/01 02:08:51;;;;;;;;;2.75;2.50;;;;;-143.90;86.88;74948.94;4913941;28;103374;-75
2023/09/01 02:11:18;;;;;;;;;1.25;1.25;;;;;-143.90;86.39;74955.16;4919580;28;103441;-76
2023/09/01 02:13:45;;;;;;;;;2.00;2.00;;;;;-143.90;86.28;74967.56;4915794;28;104331;-75
2023/09/01 02:16:11;;;;;;;;;1.50;1.50;;;;;-143.90;86.51;74992.38;4916784;28;103319;-75
2023/09/01 02:18:38;;;;;;;;;3.25;3.25;;;;;-143.90;87.77;75010.97;4916758;28;101942;-75
2023/09/01 02:21:05;;;;;;;;;4.00;3.00;;;;;-143.90;87.86;75006.84;4908998;28;102487;-76
2023/09/01 02:23:31;;;;;;;;;1.00;1.00;;;;;-143.90;87.92;75004.75;4915185;28;102927;-76
2023/09/01 02:25:58;;;;;;;;;3.00;3.00;;;;;-143.90;87.01;75004.75;4912540;28;104100;-76
2023/09/01 02:28:25;;;;;;;;;7.00;6.50;;;;;-143.90;87.43;75013.03;4913018;28;102336;-75
2023/09/01 02:30:52;;;;;;;;;8.75;8.00;;;;;-143.90;88.08;75019.22;4915801;28;102170;-75
2023/09/01 02:33:18;;;;;;;;;5.00;5.00;;;;;-143.90;88.76;75019.22;4907922;28;103257;-75
2023/09/01 02:35:47;;;;;;;;;6.00;6.00;;;;;-143.90;88.70;75015.09;4914413;28;102165;-75
2023/09/01 02:38:14;;;;;;;;;6.50;6.50;;;;;-143.90;88.86;75015.09;4894515;28;102488;-75
2023/09/01 02:40:41;;;;;;;;;7.50;6.75;;;;;-143.90;88.01;75015.09;4912409;28;102537;-75
2023/09/01 02:43:08;;;;;;;;;6.50;5.75;;;;;-143.90;87.83;75019.22;4898215;28;103468;-76
2023/09/01 02:45:35;;;;;;;;;3.00;2.75;;;;;-143.90;88.67;75019.22;4907185;28;103767;-75
2023/09/01 02:48:02;;;;;;;;;6.00;5.00;;;;;-143.90;88.15;75023.38;4894908;28;102594;-75
2023/09/01 02:50:29;;;;;;;;;4.50;4.50;;;;;-143.90;88.21;75023.38;4897876;28;102150;-74
2023/09/01 02:52:56;;;;;;;;;4.75;4.00;;;;;-143.90;87.46;75027.50;4910277;28;104726;-76
2023/09/01 02:55:23;;;;;;;;;3.75;3.00;;;;;-143.90;87.45;75039.91;4904188;28;102242;-74
2023/09/01 02:57:50;;;;;;;;;2.75;2.75;;;;;-143.90;88.28;75039.91;4897639;28;102115;-75
2023/09/01 03:00:21;;;;;;;;;2.00;2.00;;;;;-143.90;88.36;75039.91;4916998;28;102490;-75
2023/09/01 03:02:50;;;;;;;;;5.00;4.00;;;;;-143.90;88.79;75039.91;4910909;28;108634;-74
2023/09/01 03:05:17;;;;;;;;;3.50;3.00;;;;;-143.90;87.74;75044.03;4912844;28;103313;-75
2023/09/01 03:07:44;;;;;;;;;4.75;4.75;;;;;-143.90;87.77;75054.38;4893287;28;102550;-75
2023/09/01 03:10:11;;;;;;;;;5.50;5.25;;;;;-143.90;87.51;75056.44;4918351;28;102503;-76
2023/09/01 03:12:38;;;;;;;;;3.00;3.00;;;;;-143.90;87.57;75060.59;4914301;28;104178;-75
2023/09/01 03:15:09;;;;;;;;;3.25;3.25;;;;;-143.90;87.37;75060.59;4879993;28;102282;-75
2023/09/01 03:17:36;;;;;;;;;3.00;3.00;;;;;-143.90;87.82;75068.84;4911759;28;103678;-75
2023/09/01 03:20:05;;;;;;;;;6.75;4.50;;;;;-143.90;87.74;75077.13;4915020;28;102155;-75
2023/09/01 03:22:31;;;;;;;;;3.75;3.75;;;;;-143.90;87.23;75077.13;4911863;28;103344;-75
2023/09/01 03:24:58;;;;;;;;;3.00;3.00;;;;;-143.90;87.48;75081.25;4909045;28;103570;-75
2023/09/01 03:27:25;;;;;;;;;2.00;2.00;;;;;-143.90;87.63;75081.25;4913465;28;102412;-75
2023/09/01 03:29:55;;;;;;;;;2.00;2.00;;;;;-143.90;87.28;75081.25;4916673;28;102018;-75
2023/09/01 03:32:22;;;;;;;;;2.00;1.00;;;;;-143.90;86.72;75089.53;4912017;28;104568;-75
2023/09/01 03:34:50;;;;;;;;;1.50;1.00;;;;;-143.90;86.78;75083.31;4908957;28;102078;-75
2023/09/01 03:37:16;;;;;;;;;1.00;1.00;;;;;-143.90;86.66;75079.19;4912533;28;103641;-76
2023/09/01 03:39:43;;;;;;;;;1.00;1.00;;;;;-143.90;86.25;75087.47;4903414;28;102314;-76
2023/09/01 03:42:10;;;;;;;;;1.00;0.25;;;;;-143.90;86.13;75097.78;4907862;28;104444;-75
2023/09/01 03:44:36;;;;;;;;;1.00;0.50;;;;;-143.90;86.38;75099.88;4893221;28;101994;-75
2023/09/01 03:47:04;;;;;;;;;1.00;1.00;;;;;-143.90;86.72;75101.94;4907439;28;104301;-75
2023/09/01 03:49:32;;;;;;;;;0.25;0.00;;;;;-143.90;86.80;75101.94;4913754;28;102044;-75
2023/09/01 03:51:59;;;;;;;;;1.00;1.00;;;;;-143.90;87.34;75097.78;4887592;28;104500;-76
2023/09/01 03:54:26;;;;;;;;;0.75;0.00;;;;;-143.90;86.78;75101.94;4914703;28;101972;-75
2023/09/01 03:56:53;;;;;;;;;0.50;0.50;;;;;-143.90;87.19;75104.00;4916509;28;102329;-75
2023/09/01 03:59:19;;;;;;;;;1.00;1.00;;;;;-143.90;86.84;75101.94;4912641;28;103588;-76
2023/09/01 04:01:47;;;;;;;;;1.00;1.00;;;;;-143.90;86.78;75095.72;4918404;28;108523;-76
2023/09/01 04:04:13;;;;;;;;;1.00;0.00;;;;;-143.90;87.11;75095.72;4895650;28;102550;-75
2023/09/01 04:06:41;;;;;;;;;1.00;0.00;;;;;-143.90;86.98;75101.94;4911734;28;102341;-75
2023/09/01 04:09:08;;;;;;;;;2.75;2.00;;;;;-143.90;86.63;75097.78;4914898;28;102311;-75
2023/09/01 04:11:35;;;;;;;;;2.00;1.00;;;;;-143.90;86.49;75097.78;4903579;28;103910;-75
2023/09/01 04:14:02;;;;;;;;;2.00;2.00;;;;;-143.90;86.17;75097.78;4912355;28;102000;-74
2023/09/01 04:16:29;;;;;;;;;1.00;1.00;;;;;-143.90;86.19;75089.53;4913036;28;102329;-76
2023/09/01 04:18:56;;;;;;;;;1.00;1.00;;;;;-143.90;85.57;75085.38;4913556;28;102069;-75
2023/09/01 04:21:22;;;;;;;;;0.25;0.25;;;;;-143.90;85.81;75083.31;4913380;28;104179;-75
2023/09/01 04:23:49;;;;;;;;;1.00;0.75;;;;;-143.90;85.95;75091.59;4914191;28;101929;-75
2023/09/01 04:26:16;;;;;;;;;0.00;0.00;;;;;-143.90;85.29;75089.53;4917970;28;102054;-75
2023/09/01 04:28:42;;;;;;;;;1.25;1.25;;;;;-143.90;85.41;75081.25;4911334;28;102544;-75
2023/09/01 04:31:28;;;;;;;;;1.00;1.00;;;;;-143.90;85.47;75081.25;4910106;28;104207;-76
2023/09/01 04:33:56;;;;;;;;;2.75;2.00;;;;;-143.90;86.14;75089.53;4914129;28;102212;-74
2023/09/01 04:36:26;;;;;;;;;2.00;1.50;;;;;-143.90;86.36;75095.72;4910223;28;102260;-76
2023/09/01 04:39:12;;;;;;;;;1.75;1.75;;;;;-143.90;86.48;75089.53;4914454;28;102172;-76
2023/09/01 04:41:40;;;;;;;;;2.00;1.25;;;;;-143.90;85.72;75093.66;4911429;28;103537;-76
2023/09/01 04:44:07;;;;;;;;;3.25;2.00;;;;;-143.90;85.76;75099.88;4909746;28;102263;-76
2023/09/01 04:46:33;;;;;;;;;2.00;1.00;;;;;-143.90;86.43;75093.66;4882789;28;107728;-76
2023/09/01 04:49:00;;;;;;;;;0.75;0.75;;;;;-143.90;86.46;75091.59;4911184;28;102154;-76
2023/09/01 04:51:27;;;;;;;;;2.00;2.00;;;;;-143.90;86.34;75085.38;4893445;28;103378;-75
2023/09/01 04:53:53;;;;;;;;;2.25;1.00;;;;;-143.90;85.42;75089.53;4911555;28;102794;-76
2023/09/01 04:56:20;;;;;;;;;1.00;1.00;;;;;-143.90;85.55;75089.53;4912803;28;102165;-75
2023/09/01 04:58:47;;;;;;;;;3.00;2.00;;;;;-143.90;86.49;75081.25;4900352;28;102649;-75
2023/09/01 05:01:13;;;;;;;;;1.00;1.00;;;;;-143.90;85.93;75079.19;4913151;28;109262;-76
2023/09/01 05:03:40;;;;;;;;;0.75;0.75;;;;;-143.90;85.81;75066.78;4912723;28;102050;-76
2023/09/01 05:06:10;;;;;;;;;2.00;1.00;;;;;-143.90;86.24;75068.84;4912189;28;101978;-74
2023/09/01 05:08:36;;;;;;;;;3.00;1.00;;;;;-143.90;85.53;75064.72;4912628;28;103911;-76
2023/09/01 05:11:03;;;;;;;;;1.75;1.75;;;;;-143.90;84.58;75056.44;4912161;28;104105;-75
2023/09/01 05:13:30;;;;;;;;;1.00;1.00;;;;;-143.90;84.35;75048.19;4911526;28;102131;-76
2023/09/01 05:15:56;;;;;;;;;2.00;1.00;;;;;-143.90;84.38;75039.91;4911179;28;102979;-76
2023/09/01 05:18:23;;;;;;;;;3.50;2.00;;;;;-143.90;83.92;75037.84;4911527;28;102085;-76
2023/09/01 05:20:50;;;;;;;;;1.75;1.75;;;;;-143.90;84.28;75029.56;4912587;28;104346;-76
2023/09/01 05:23:17;;;;;;;;;2.00;1.00;;;;;-143.90;82.88;75027.50;4914218;28;102166;-75
2023/09/01 05:25:43;;;;;;;;;3.00;2.50;;;;;-143.90;82.61;75019.22;4907640;28;103410;-76
2023/09/01 05:28:10;;;;;;;;;1.50;1.50;;;;;-143.90;82.14;75015.09;4897553;28;102323;-76
2023/09/01 05:30:37;;;;;;;;;2.00;2.00;;;;;-143.90;82.22;75002.69;4897366;28;104218;-75
2023/09/01 05:33:04;;;;;;;;;2.00;2.00;;;;;-143.90;81.72;74990.28;4907177;28;102409;-75
2023/09/01 05:35:31;;;;;;;;;2.00;2.00;;;;;-143.90;82.44;74982.03;4891545;28;102385;-76
2023/09/01 05:37:57;;;;;;;;;2.50;2.50;;;;;-143.90;81.48;74963.41;4912988;28;102126;-75
2023/09/01 05:40:24;;;;;;;;;3.00;3.00;;;;;-143.90;79.75;74924.13;4908239;28;104330;-75
2023/09/01 05:42:51;;;;;;;;;3.00;2.25;;;;;-143.90;78.54;74893.13;4894740;28;102065;-75
2023/09/01 05:45:18;;;;;;;;;2.00;1.75;;;;;-143.90;76.08;74837.31;4892304;28;102379;-76
2023/09/01 05:47:44;;;;;;;;;4.00;3.00;;;;;-143.90;75.22;74783.56;4907054;28;103088;-75
2023/09/01 05:50:11;;;;;;;;;3.00;2.00;;;;;-143.90;72.28;74738.09;4908233;28;104002;-76
2023/09/01 05:52:37;;;;;;;;;3.00;3.00;;;;;-143.90;70.57;74713.28;4900126;28;102005;-77
2023/09/01 05:55:04;;;;;;;;;3.00;3.00;;;;;-143.90;69.63;74690.53;4906965;28;104186;-76
2023/09/01 05:57:31;;;;;;;;;5.25;3.25;;;;;-143.90;70.38;74680.22;4912523;28;101997;-76
2023/09/01 05:59:58;;;;;;;;;2.75;2.00;;;;;-143.90;67.85;74684.34;4907297;28;103423;-76
2023/09/01 06:02:25;;;;;;;;;2.25;2.25;;;;;-143.90;67.18;74653.34;4909853;28;102582;-75
2023/09/01 06:04:51;;;;;;;;;4.00;4.00;;;;;-143.90;68.30;74651.28;4907238;28;102459;-76
2023/09/01 06:07:18;;;;;;;;;3.75;3.75;;;;;-143.90;68.69;74636.81;4914083;28;102423;-75
2023/09/01 06:09:45;;;;;;;;;3.00;2.00;;;;;-143.90;66.92;74634.72;4908238;28;108671;-76
2023/09/01 06:12:14;;;;;;;;;2.67;2.67;;;;;-143.90;66.82;74609.94;4895755;28;102267;-76
2023/09/01 06:14:41;;;;;;;;;3.00;2.33;;;;;-143.90;67.47;74597.53;4904488;28;103442;-76
2023/09/01 06:17:10;;;;;;;;;3.00;3.00;;;;;-143.90;65.56;74591.31;4868023;28;102141;-75
2023/09/01 06:19:37;;;;;;;;;4.00;4.00;;;;;-143.90;65.37;74578.91;4908811;28;105112;-74
2023/09/01 06:22:03;;;;;;;;;3.00;3.00;;;;;-143.90;63.91;74566.53;4912858;28;102536;-76
2023/09/01 06:24:30;;;;;;;;;3.00;3.00;;;;;-143.90;64.79;74531.38;4902972;28;102152;-75
2023/09/01 06:26:57;;;;;;;;;3.67;3.00;;;;;-143.90;65.10;74512.78;4902839;28;102267;-76
2023/09/01 06:29:23;;;;;;;;;3.00;3.00;;;;;-143.90;62.99;74504.50;4906054;28;104352;-76
2023/09/01 06:31:50;;;;;;;;;2.00;2.00;;;;;-143.90;63.97;74485.91;4909225;28;101916;-75
2023/09/01 06:34:17;;;;;;;;;4.00;3.00;;;;;-143.90;63.44;74477.63;4908318;28;102810;-76
2023/09/01 06:36:43;;;;;;;;;3.00;2.00;;;;;-143.90;63.41;74459.03;4894083;28;102799;-74
2023/09/01 06:39:10;;;;;;;;;2.00;2.00;;;;;-143.90;63.21;74452.84;4913872;28;104231;-73
2023/09/01 06:41:37;;;;;;;;;2.00;2.00;;;;;-143.90;63.76;74448.69;4914954;28;101956;-72
2023/09/01 06:44:04;;;;;;;;;2.00;2.00;;;;;-143.90;63.96;74436.28;4898919;28;103541;-74
2023/09/01 06:46:30;;;;;;;;;1.67;1.67;;;;;-143.90;62.23;74419.75;4897298;28;102953;-73
2023/09/01 06:48:57;;;;;;;;;3.33;2.00;;;;;-143.90;60.72;74428.03;4911188;28;103700;-75
2023/09/01 06:51:24;;;;;;;;;3.00;2.67;;;;;-143.90;61.00;74423.88;4900422;28;102034;-74
2023/09/01 06:53:50;;;;;;;;;4.00;2.67;;;;;-143.90;60.46;74428.03;4896703;28;102497;-75
2023/09/01 06:56:17;;;;;;;;;3.00;3.00;;;;;-143.90;62.35;74407.34;4910070;28;102567;-73
2023/09/01 06:58:43;;;;;;;;;2.00;2.00;;;;;-143.90;61.09;74397.03;4895964;28;104433;-74
2023/09/01 07:01:11;;;;;;;;;2.00;2.00;;;;;-143.90;59.64;74401.16;4895161;28;102117;-74
2023/09/01 07:03:38;;;;;;;;;4.00;3.00;;;;;-143.90;59.88;74407.34;4896968;28;102090;-75
2023/09/01 07:06:05;;;;;;;;;2.00;2.00;;;;;-143.90;60.06;74390.81;4914268;28;102077;-74
2023/09/01 07:08:32;;;;;;;;;4.00;3.00;;;;;-143.90;58.83;74392.88;4914496;28;104155;-73
2023/09/01 07:11:01;;;;;;;;;2.00;2.00;;;;;-143.90;60.65;74394.94;4912134;28;102292;-73
2023/09/01 07:13:27;;;;;;;;;3.00;3.00;;;;;-143.90;58.70;74397.03;4899022;28;102817;-75
2023/09/01 07:15:54;;;;;;;;;3.67;3.00;;;;;-143.90;57.93;74401.16;4914341;28;102354;-74
2023/09/01 07:18:22;;;;;;;;;4.00;4.00;;;;;-143.90;58.01;74409.41;4916928;28;103193;-74
2023/09/01 07:20:50;;;;;;;;;3.67;3.00;;;;;-143.90;59.83;74407.34;4909354;28;102170;-73
2023/09/01 07:23:17;;;;;;;;;3.00;2.67;;;;;-143.90;58.75;74394.94;4913530;28;103495;-74
2023/09/01 07:25:44;;;;;;;;;4.00;2.67;;;;;-143.90;58.51;74390.81;4916203;28;102176;-74
2023/09/01 07:28:12;;;;;;;;;2.00;2.00;;;;;-143.90;59.15;74378.41;4912227;28;104992;-73
2023/09/01 07:30:39;;;;;;;;;2.67;2.67;;;;;-143.90;58.88;74357.75;4913169;28;102301;-74
2023/09/01 07:33:06;;;;;;;;;3.00;3.00;;;;;-143.90;57.63;74357.75;4913918;28;102017;-74
2023/09/01 07:35:33;;;;;;;;;3.00;2.67;;;;;-143.90;56.73;74361.88;4891819;28;104431;-73
2023/09/01 07:38:00;;;;;;;;;3.00;3.00;;;;;-143.90;56.69;74361.88;4907283;28;104213;-73
2023/09/01 07:40:27;;;;;;;;;4.00;3.00;;;;;-143.90;56.54;74370.16;4904129;28;103001;-73
2023/09/01 07:42:54;;;;;;;;;2.00;2.00;;;;;-143.90;58.08;74370.16;4908852;28;102463;-74
2023/09/01 07:45:21;;;;;;;;;3.00;3.00;;;;;-143.90;57.58;74394.94;4894630;28;102016;-73
2023/09/01 07:47:48;;;;;;;;;3.00;3.00;;;;;-143.90;58.52;74397.03;4913817;28;105484;-74
2023/09/01 07:50:30;;;;;;;;;2.00;2.00;;;;;-143.90;57.92;74405.28;4908452;28;102559;-73
2023/09/01 07:52:57;;;;;;;;;2.00;2.00;;;;;-143.90;57.90;74401.16;4897408;28;102265;-73
2023/09/01 07:55:24;;;;;;;;;2.67;2.00;;;;;-143.90;58.27;74413.56;4913611;28;102280;-74
2023/09/01 07:57:50;;;;;;;;;2.67;2.67;;;;;-143.90;59.10;74399.09;4916927;28;103341;-73
2023/09/01 08:00:17;;;;;;;;;2.33;1.67;;;;;-143.90;60.34;74399.09;4912487;28;102024;-74
2023/09/01 08:02:44;;;;;;;;;3.00;3.00;;;;;-143.90;57.82;74411.50;4913407;28;101891;-74
2023/09/01 08:05:11;;;;;;;;;2.00;2.00;;;;;-143.90;57.65;74405.28;4915540;28;101948;-73
2023/09/01 08:07:37;;;;;;;;;2.00;2.00;;;;;-143.90;56.91;74397.03;4912331;28;104933;-74
2023/09/01 08:10:05;;;;;;;;;2.00;2.00;;;;;-143.90;58.23;74386.69;4913876;28;101978;-74
2023/09/01 08:12:32;;;;;;;;;2.00;2.00;;;;;-143.90;57.79;74374.28;4883737;28;102934;-72
2023/09/01 08:14:59;;;;;;;;;4.00;2.00;;;;;-143.90;57.14;74366.00;4897444;28;102434;-73
2023/09/01 08:17:25;;;;;;;;;2.00;2.00;;;;;-143.90;56.27;74357.75;4913732;28;104335;-74
2023/09/01 08:19:52;;;;;;;;;2.00;2.00;;;;;-143.90;58.67;74339.16;4898273;28;103612;-74
2023/09/01 08:22:19;;;;;;;;;2.33;2.00;;;;;-143.90;58.64;74328.81;4909019;28;103918;-73
2023/09/01 08:24:45;;;;;;;;;2.00;2.00;;;;;-143.90;58.03;74304.00;4914952;28;102420;-73
2023/09/01 08:27:12;;;;;;;;;1.00;1.00;;;;;-143.90;58.04;74262.66;4904002;28;104140;-73
2023/09/01 08:29:38;;;;;;;;;2.00;2.00;;;;;-143.90;54.51;74254.41;4909395;28;102885;-73
2023/09/01 08:32:05;;;;;;;;;2.33;1.67;;;;;-143.90;56.35;74250.25;4904984;28;101975;-74
2023/09/01 08:34:32;;;;;;;;;2.00;2.00;;;;;-143.90;55.97;74248.19;4911064;28;102040;-74
2023/09/01 08:36:59;;;;;;;;;2.00;2.00;;;;;-143.90;56.11;74254.41;4909552;28;103653;-75
2023/09/01 08:39:26;;;;;;;;;1.33;1.33;;;;;-143.90;56.89;74268.88;4891278;28;103366;-72
2023/09/01 08:41:53;;;;;;;;;3.00;2.33;;;;;-143.90;56.02;74293.66;4928340;28;103291;-73
2023/09/01 08:44:23;;;;;;;;;3.00;2.00;;;;;-143.90;56.19;74308.13;4890978;28;102934;-73
2023/09/01 08:46:55;;;;;;;;;3.00;3.00;;;;;-143.90;55.25;74337.06;4901581;28;104337;-72
2023/09/01 08:49:25;;;;;;;;;2.00;2.00;;;;;-143.90;55.19;74345.34;4899944;28;103537;-73
2023/09/01 08:51:55;;;;;;;;;3.00;3.00;;;;;-143.90;56.29;74341.22;4892544;28;102320;-73
2023/09/01 08:54:23;;;;;;;;;2.00;2.00;;;;;-143.90;57.07;74345.34;4896046;28;102431;-73
2023/09/01 08:56:50;;;;;;;;;1.00;1.00;;;;;-143.90;56.54;74345.34;4908304;28;104117;-74
2023/09/01 08:59:17;;;;;;;;;1.67;1.00;;;;;-143.90;56.89;74347.41;4910714;28;102325;-74
2023/09/01 09:01:43;;;;;;;;;2.00;2.00;;;;;-143.90;56.57;74355.69;4907663;28;102264;-75
2023/09/01 09:04:10;;;;;;;;;3.00;1.00;;;;;-143.90;55.51;74359.81;4910029;28;102077;-73
2023/09/01 09:06:39;;;;;;;;;1.33;1.33;;;;;-143.90;55.78;74374.28;4889394;28;103969;-74
2023/09/01 09:09:11;;;;;;;;;2.00;1.33;;;;;-143.90;57.43;74376.34;4895683;28;102218;-73
2023/09/01 09:11:38;;;;;;;;;1.00;1.00;;;;;-143.90;56.04;74386.69;4899856;28;102308;-73
2023/09/01 09:14:06;;;;;;;;;3.00;2.00;;;;;-143.90;56.26;74399.09;4904533;28;103792;-73
2023/09/01 09:16:50;;;;;;;;;2.00;2.00;;;;;-143.90;57.70;74403.22;4907384;28;104217;-73
2023/09/01 09:19:18;;;;;;;;;2.00;2.00;;;;;-143.90;59.27;74397.03;4908337;28;102560;-73
2023/09/01 09:21:46;;;;;;;;;1.00;1.00;;;;;-143.90;58.48;74403.22;4911787;28;102472;-73
2023/09/01 09:24:13;;;;;;;;;2.00;2.00;;;;;-143.90;60.05;74394.94;4910768;28;102618;-73
2023/09/01 09:26:57;;;;;;;;;1.67;1.67;;;;;-143.90;58.18;74390.81;4909159;28;104075;-73
2023/09/01 09:29:24;;;;;;;;;2.67;1.67;;;;;-143.90;61.35;74380.47;4909538;28;102665;-73
2023/09/01 09:31:51;;;;;;;;;3.00;2.00;;;;;-143.90;59.64;74363.94;4912862;28;103208;-73
2023/09/01 09:34:19;;;;;;;;;2.00;2.00;;;;;-143.90;58.08;74349.47;4893169;28;102510;-73
2023/09/01 09:36:47;;;;;;;;;2.00;2.00;;;;;-143.90;57.52;74351.53;4909521;28;104155;-73
2023/09/01 09:39:30;;;;;;;;;2.00;2.00;;;;;-143.90;58.04;74332.94;4907535;28;102084;-73
2023/09/01 09:41:57;;;;;;;;;1.00;0.33;;;;;-143.90;59.86;74310.22;4911976;28;103264;-72
2023/09/01 09:44:33;;;;;;;;;1.33;1.33;;;;;-143.90;59.03;74285.41;4903307;28;102390;-74
2023/09/01 09:47:03;;;;;;;;;1.00;1.00;;;;;-143.90;59.58;74279.22;4910826;28;108861;-73
2023/09/01 09:49:31;;;;;;;;;1.33;1.33;;;;;-143.90;57.02;74277.13;4891227;28;103624;-73
2023/09/01 09:52:00;;;;;;;;;1.67;1.67;;;;;-143.90;57.05;74275.06;4905024;28;102238;-74
2023/09/01 09:54:29;;;;;;;;;1.00;1.00;;;;;-143.90;54.90;74291.59;4910172;28;102031;-73
2023/09/01 09:56:58;;;;;;;;;2.00;2.00;;;;;-143.90;55.58;74285.41;4912701;28;108934;-74
2023/09/01 09:59:35;;;;;;;;;2.00;2.00;;;;;-143.90;55.64;74297.81;4906855;28;103832;-74
2023/09/01 10:02:16;;;;;;;;;1.33;1.00;;;;;-143.90;57.17;74289.53;4902513;28;102407;-74
2023/09/01 10:04:45;;;;;;;;;3.33;2.33;;;;;-143.90;54.39;74285.41;4914719;28;102028;-73
2023/09/01 10:07:12;;;;;;;;;2.00;2.00;;;;;-143.90;53.97;74258.53;4896033;28;103502;-73
2023/09/01 10:09:41;;;;;;;;;3.67;3.00;;;;;-143.90;53.61;74229.59;4909312;28;102096;-73
2023/09/01 10:12:08;;;;;;;;;4.00;4.00;;;;;-143.90;53.49;74196.53;4895393;28;102024;-72
2023/09/01 10:14:39;;;;;;;;;3.00;3.00;;;;;-143.90;54.46;74159.31;4910896;28;102704;-73
2023/09/01 10:17:07;;;;;;;;;3.00;2.00;;;;;-143.90;52.89;74130.38;4909536;28;104297;-73
2023/09/01 10:19:34;;;;;;;;;4.50;4.00;;;;;-143.90;51.73;74155.19;4896384;28;102313;-73
2023/09/01 10:22:01;;;;;;;;;4.00;4.00;;;;;-143.90;51.92;74126.25;4911077;28;102762;-74
2023/09/01 10:24:27;;;;;;;;;3.00;2.67;;;;;-143.90;52.15;74103.53;4918526;28;102002;-73
2023/09/01 10:27:12;;;;;;;;;2.67;2.67;;;;;-143.90;51.63;74074.59;4913995;28;103461;-73
2023/09/01 10:29:39;;;;;;;;;4.00;3.33;;;;;-143.90;51.31;74058.06;4910886;28;101994;-73
2023/09/01 10:32:16;;;;;;;;;3.67;3.00;;;;;-143.90;51.95;74051.84;4914068;28;102553;-74
2023/09/01 10:34:53;;;;;;;;;2.00;2.00;;;;;-143.90;50.94;74039.44;4916232;28;102393;-73
2023/09/01 10:37:30;;;;;;;;;3.00;2.67;;;;;-143.90;48.05;74024.97;4914074;28;104192;-73
2023/09/01 10:39:57;;;;;;;;;2.00;2.00;;;;;-143.90;47.04;74004.31;4911804;28;101857;-73
2023/09/01 10:42:43;;;;;;;;;2.00;2.00;;;;;-143.90;48.38;73985.72;4914027;28;102342;-74
2023/09/01 10:45:12;;;;;;;;;5.00;2.33;;;;;-143.90;48.64;74014.66;4913161;28;102611;-72
2023/09/01 10:47:41;;;;;;;;;2.67;2.33;;;;;-143.90;50.33;74022.91;4914809;28;103754;-73
2023/09/01 10:50:12;;;;;;;;;3.00;3.00;;;;;-143.90;50.32;74060.13;4913173;28;102054;-73
2023/09/01 10:52:41;;;;;;;;;3.67;3.67;;;;;-143.90;49.60;74099.38;4913813;28;103353;-73
2023/09/01 10:55:08;;;;;;;;;3.00;3.00;;;;;-143.90;48.85;74113.84;4909462;28;101975;-72
2023/09/01 10:57:43;;;;;;;;;4.00;3.00;;;;;-143.90;49.16;74115.91;4927678;28;104207;-73
2023/09/01 11:00:28;;;;;;;;;3.00;3.00;;;;;-143.90;49.69;74118.00;4913756;28;102996;-73
2023/09/01 11:03:30;;;;;;;;;3.33;2.33;;;;;-143.90;50.48;74122.13;4912039;28;102087;-74
2023/09/01 11:06:01;;;;;;;;;3.33;2.67;;;;;-143.90;49.28;74132.44;4912954;28;102427;-72
2023/09/01 11:08:28;;;;;;;;;4.33;2.67;;;;;-143.90;50.70;74124.19;4910871;28;110617;-73
2023/09/01 11:11:00;;;;;;;;;4.67;4.00;;;;;-143.90;49.01;74149.00;4916256;28;102382;-73
2023/09/01 11:13:27;;;;;;;;;4.67;3.67;;;;;-143.90;49.79;74151.06;4912150;28;103502;-74
2023/09/01 11:15:54;;;;;;;;;3.00;3.00;;;;;-143.90;50.22;74146.91;4909761;28;102315;-72